Time;durP1;ratioP1;P1;durP2;ratioP2;P2;SDS_P1;SDS_P2;PMS_P1;PMS_P2;Temp;Humidity;BMP_temperature;BMP_pressure;BME280_temperature;BME280_humidity;BME280_pressure;Samples;Min_cycle;Max_cycle;Signal;HPM_P1;HPM_P2
2022/07/31 00:00:38;;;;;;;5.13;3.88;;;19.70;99.90;;;;;;5099312;28;20077;-66
2022/07/31 00:03:05;;;;;;;8.35;5.18;;;19.70;99.90;;;;;;5086698;28;20083;-66
2022/07/31 00:05:31;;;;;;;7.43;4.68;;;19.60;99.90;;;;;;5106715;28;20119;-66
2022/07/31 00:07:57;;;;;;;10.05;4.72;;;19.70;99.90;;;;;;5091177;28;20177;-66
2022/07/31 00:10:23;;;;;;;4.45;3.70;;;19.70;99.90;;;;;;5104136;28;20127;-66
2022/07/31 00:12:48;;;;;;;6.90;4.18;;;19.70;99.90;;;;;;5084653;28;20049;-66
2022/07/31 00:15:15;;;;;;;7.90;3.92;;;19.70;99.90;;;;;;5083339;28;20047;-66
2022/07/31 00:17:42;;;;;;;5.60;3.22;;;19.70;99.90;;;;;;5067937;28;20047;-66
2022/07/31 00:20:12;;;;;;;5.47;3.42;;;19.70;99.90;;;;;;5080487;28;20070;-66
2022/07/31 00:22:38;;;;;;;6.65;3.75;;;19.70;99.90;;;;;;5077705;28;20419;-66
2022/07/31 00:25:05;;;;;;;8.48;3.60;;;19.70;99.90;;;;;;5108959;28;20415;-66
2022/07/31 00:27:31;;;;;;;6.40;3.70;;;19.70;99.90;;;;;;5087024;28;20084;-66
2022/07/31 00:29:56;;;;;;;4.40;3.53;;;19.70;99.90;;;;;;5076236;28;20036;-66
2022/07/31 00:32:22;;;;;;;5.88;3.58;;;19.70;99.90;;;;;;5098606;28;20053;-66
2022/07/31 00:34:48;;;;;;;6.80;3.83;;;19.70;99.90;;;;;;5084501;28;20044;-66
2022/07/31 00:37:13;;;;;;;11.38;4.72;;;19.70;99.90;;;;;;5101334;28;20041;-66
2022/07/31 00:39:39;;;;;;;6.65;3.70;;;19.60;99.90;;;;;;5082205;28;20447;-66
2022/07/31 00:42:05;;;;;;;4.95;3.90;;;19.60;99.90;;;;;;5086566;28;20047;-66
2022/07/31 00:44:31;;;;;;;10.43;4.40;;;19.60;99.90;;;;;;5087760;28;20075;-66
2022/07/31 00:46:56;;;;;;;5.00;3.67;;;19.60;99.90;;;;;;5084010;28;20051;-66
2022/07/31 00:49:22;;;;;;;6.53;4.15;;;19.60;99.90;;;;;;5068675;28;20049;-66
2022/07/31 00:51:48;;;;;;;6.65;3.83;;;19.60;99.90;;;;;;5081191;28;20041;-66
2022/07/31 00:54:13;;;;;;;4.82;4.18;;;19.50;99.90;;;;;;5071500;28;20056;-66
2022/07/31 00:56:39;;;;;;;6.88;4.20;;;19.60;99.90;;;;;;5102387;28;20043;-66
2022/07/31 00:59:05;;;;;;;5.32;3.75;;;19.50;99.90;;;;;;5085649;28;20062;-66
2022/07/31 01:01:31;;;;;;;6.30;3.97;;;19.50;99.90;;;;;;5108593;28;20091;-66
2022/07/31 01:03:57;;;;;;;9.52;4.15;;;19.50;99.90;;;;;;5106607;28;20032;-66
2022/07/31 01:06:23;;;;;;;5.68;3.85;;;19.50;99.90;;;;;;5104757;28;20040;-66
2022/07/31 01:08:49;;;;;;;6.40;4.18;;;19.40;99.90;;;;;;5094373;28;20050;-66
2022/07/31 01:11:20;;;;;;;5.28;3.85;;;19.40;99.90;;;;;;5087422;28;20051;-66
2022/07/31 01:14:01;;;;;;;6.55;3.67;;;19.40;99.90;;;;;;5094978;28;20032;-66
2022/07/31 01:16:29;;;;;;;5.47;3.42;;;19.40;99.90;;;;;;5085831;28;20075;-66
2022/07/31 01:18:57;;;;;;;8.93;3.70;;;19.30;99.90;;;;;;5106763;28;20040;-66
2022/07/31 01:21:34;;;;;;;6.20;3.55;;;19.30;99.90;;;;;;5076491;28;20061;-66
2022/07/31 01:23:59;;;;;;;4.57;3.42;;;19.20;99.90;;;;;;5080863;28;20519;-66
2022/07/31 01:26:47;;;;;;;6.10;3.50;;;19.20;99.90;;;;;;5080737;28;20044;-66
2022/07/31 01:29:27;;;;;;;4.30;3.38;;;19.00;99.90;;;;;;5072217;28;20058;-66
2022/07/31 01:32:13;;;;;;;;;;;18.90;99.90;;;;;;5085519;28;20075;-66
2022/07/31 01:34:51;;;;;;;5.75;3.30;;;18.70;99.90;;;;;;5082735;28;19920;-66
2022/07/31 01:37:19;;;;;;;6.30;3.63;;;18.50;99.90;;;;;;5084461;28;20108;-66
2022/07/31 01:40:02;;;;;;;5.38;4.05;;;18.40;99.90;;;;;;5079556;28;20044;-66
2022/07/31 01:42:29;;;;;;;5.85;3.95;;;18.40;99.90;;;;;;5079372;28;20048;-66
2022/07/31 01:44:58;;;;;;;4.30;3.30;;;18.30;99.90;;;;;;5087762;28;20048;-66
2022/07/31 01:47:26;;;;;;;4.43;3.17;;;18.20;99.90;;;;;;5103754;28;20036;-66
2022/07/31 01:49:54;;;;;;;5.45;3.53;;;18.10;99.90;;;;;;5082057;28;20048;-66
2022/07/31 01:52:23;;;;;;;6.97;3.50;;;18.00;99.90;;;;;;5102979;28;20044;-66
2022/07/31 01:54:50;;;;;;;4.93;3.42;;;17.90;99.90;;;;;;5088254;28;20040;-66
2022/07/31 01:57:18;;;;;;;6.28;4.18;;;17.80;99.90;;;;;;5092566;28;20044;-66
2022/07/31 01:59:47;;;;;;;4.75;4.10;;;17.80;99.90;;;;;;5084668;28;20040;-66
2022/07/31 02:02:14;;;;;;;7.57;4.88;;;17.80;99.90;;;;;;5104131;28;20044;-66
2022/07/31 02:04:41;;;;;;;7.80;4.20;;;18.00;99.90;;;;;;5101087;28;20044;-66
2022/07/31 02:07:07;;;;;;;8.18;4.03;;;18.00;99.90;;;;;;5061331;28;20041;-66
2022/07/31 02:09:35;;;;;;;6.43;4.43;;;18.10;99.90;;;;;;5099088;28;20115;-66
2022/07/31 02:12:02;;;;;;;6.45;4.25;;;18.20;99.90;;;;;;5104997;28;20048;-66
2022/07/31 02:14:29;;;;;;;9.35;4.13;;;18.30;99.90;;;;;;5084091;28;20112;-66
2022/07/31 02:16:55;;;;;;;7.03;4.20;;;18.30;99.90;;;;;;5084826;28;20040;-66
2022/07/31 02:19:22;;;;;;;7.07;3.85;;;18.40;99.90;;;;;;5085115;28;20052;-66
2022/07/31 02:21:48;;;;;;;6.00;3.83;;;18.40;99.90;;;;;;5094082;28;20055;-66
2022/07/31 02:24:14;;;;;;;6.70;3.95;;;18.50;99.90;;;;;;5099126;28;20040;-66
2022/07/31 02:26:40;;;;;;;5.78;3.70;;;18.50;99.90;;;;;;5099169;28;20044;-66
2022/07/31 02:29:09;;;;;;;4.85;3.63;;;18.60;99.90;;;;;;5105270;28;20484;-66
2022/07/31 02:31:36;;;;;;;7.22;4.45;;;18.60;99.90;;;;;;5102673;28;20086;-66
2022/07/31 02:34:02;;;;;;;4.65;3.28;;;18.60;99.90;;;;;;5103353;28;20071;-66
2022/07/31 02:36:29;;;;;;;3.88;3.47;;;18.50;99.90;;;;;;5084264;28;20473;-66
2022/07/31 02:38:56;;;;;;;5.68;3.40;;;18.40;99.90;;;;;;5087592;28;20089;-66
2022/07/31 02:41:23;;;;;;;7.55;3.33;;;18.20;99.90;;;;;;5096540;28;20105;-66
2022/07/31 02:43:50;;;;;;;6.88;3.90;;;18.10;99.90;;;;;;5103034;28;20078;-66
2022/07/31 02:46:17;;;;;;;4.55;3.20;;;18.10;99.90;;;;;;5099831;28;20040;-66
2022/07/31 02:48:43;;;;;;;6.47;3.85;;;18.20;99.90;;;;;;5104153;28;20044;-66
2022/07/31 02:51:09;;;;;;;6.78;4.10;;;18.20;99.90;;;;;;5094762;28;20044;-66
2022/07/31 02:53:39;;;;;;;6.68;4.55;;;18.20;99.90;;;;;;5086113;28;20080;-66
2022/07/31 02:56:08;;;;;;;5.25;3.63;;;18.30;99.90;;;;;;5083186;28;20044;-66
2022/07/31 02:58:36;;;;;;;5.27;4.17;;;18.30;99.90;;;;;;5084349;28;20040;-66
2022/07/31 03:01:05;;;;;;;5.25;3.88;;;18.40;99.90;;;;;;5082650;28;20317;-66
2022/07/31 03:03:31;;;;;;;5.57;3.72;;;18.40;99.90;;;;;;5104034;28;20056;-66
2022/07/31 03:05:57;;;;;;;4.93;3.83;;;18.40;99.90;;;;;;5089339;28;20085;-66
2022/07/31 03:08:23;;;;;;;4.45;3.50;;;18.40;99.90;;;;;;5072028;28;20075;-66
2022/07/31 03:10:49;;;;;;;6.10;3.30;;;18.40;99.90;;;;;;5077365;28;20057;-66
2022/07/31 03:13:16;;;;;;;4.93;3.63;;;18.50;99.90;;;;;;5073707;28;20056;-66
2022/07/31 03:15:43;;;;;;;6.53;3.55;;;18.50;99.90;;;;;;5074162;28;20501;-66
2022/07/31 03:18:10;;;;;;;5.20;4.07;;;18.50;99.90;;;;;;5084740;28;20211;-66
2022/07/31 03:20:37;;;;;;;8.43;3.75;;;18.40;99.90;;;;;;5095076;28;20059;-66
2022/07/31 03:23:03;;;;;;;8.68;4.55;;;18.30;99.90;;;;;;5081164;28;20053;-66
2022/07/31 03:25:31;;;;;;;5.07;3.92;;;18.20;99.90;;;;;;5083611;28;20059;-66
2022/07/31 03:27:58;;;;;;;7.40;4.32;;;18.20;99.90;;;;;;5056931;28;20056;-66
2022/07/31 03:30:25;;;;;;;6.78;4.30;;;18.10;99.90;;;;;;5058233;28;20045;-66
2022/07/31 03:32:51;;;;;;;9.07;4.75;;;18.00;99.90;;;;;;5065191;28;20055;-66
2022/07/31 03:35:18;;;;;;;6.07;4.40;;;17.90;99.90;;;;;;5082548;28;20036;-66
2022/07/31 03:37:44;;;;;;;6.13;4.15;;;17.90;99.90;;;;;;5076122;28;20399;-66
2022/07/31 03:40:10;;;;;;;5.45;4.60;;;17.90;99.90;;;;;;5048291;28;20056;-66
2022/07/31 03:42:36;;;;;;;6.22;4.35;;;18.00;99.90;;;;;;5080960;28;20033;-66
2022/07/31 03:45:04;;;;;;;5.47;3.97;;;17.90;99.90;;;;;;5063350;28;20519;-66
2022/07/31 03:47:30;;;;;;;7.20;4.68;;;17.80;99.90;;;;;;5081634;28;20040;-66
2022/07/31 03:49:56;;;;;;;5.88;4.18;;;17.80;99.90;;;;;;5063868;28;20096;-66
2022/07/31 03:52:23;;;;;;;7.40;4.78;;;17.80;99.90;;;;;;5078087;28;20045;-66
2022/07/31 03:54:49;;;;;;;5.70;4.25;;;17.70;99.90;;;;;;5075696;28;20048;-66
2022/07/31 03:57:16;;;;;;;5.35;4.85;;;17.70;99.90;;;;;;5052301;28;20137;-66
2022/07/31 03:59:42;;;;;;;6.28;4.55;;;17.80;99.90;;;;;;5080964;28;20057;-66
2022/07/31 04:02:09;;;;;;;6.05;4.88;;;17.80;99.90;;;;;;5057861;28;20044;-66
2022/07/31 04:04:36;;;;;;;5.28;4.68;;;17.80;99.90;;;;;;5042959;28;20041;-66
2022/07/31 04:07:04;;;;;;;8.75;4.70;;;17.90;99.90;;;;;;5065539;28;20060;-66
2022/07/31 04:09:29;;;;;;;4.75;4.25;;;17.90;99.90;;;;;;5061106;28;20040;-66
2022/07/31 04:11:55;;;;;;;7.43;5.00;;;17.90;99.90;;;;;;5061326;28;20080;-66
2022/07/31 04:14:21;;;;;;;7.03;4.70;;;17.90;99.90;;;;;;5070219;28;20129;-66
2022/07/31 04:16:46;;;;;;;7.20;4.88;;;18.00;99.90;;;;;;5062459;28;20043;-66
2022/07/31 04:19:12;;;;;;;6.90;5.10;;;18.00;99.90;;;;;;5084066;28;20094;-66
2022/07/31 04:21:38;;;;;;;7.35;4.78;;;18.00;99.90;;;;;;5078852;28;20049;-66
2022/07/31 04:24:04;;;;;;;7.10;5.03;;;18.00;99.90;;;;;;5096724;28;20551;-66
2022/07/31 04:26:30;;;;;;;5.93;4.68;;;17.90;99.90;;;;;;5099709;28;20048;-66
2022/07/31 04:28:56;;;;;;;6.60;5.25;;;17.90;99.90;;;;;;5096595;28;20035;-66
2022/07/31 04:31:21;;;;;;;8.30;5.57;;;17.80;99.90;;;;;;5102061;28;20127;-66
2022/07/31 04:33:48;;;;;;;7.55;4.45;;;17.80;99.90;;;;;;5073565;28;20040;-66
2022/07/31 04:36:13;;;;;;;6.10;4.88;;;17.80;99.90;;;;;;5100375;28;20048;-66
2022/07/31 04:38:39;;;;;;;7.88;5.15;;;17.70;99.90;;;;;;5102211;28;20514;-66
2022/07/31 04:41:05;;;;;;;6.13;5.20;;;17.80;99.90;;;;;;5075222;28;20037;-66
2022/07/31 04:43:30;;;;;;;8.32;4.95;;;17.90;99.90;;;;;;5092573;28;20068;-66
2022/07/31 04:45:56;;;;;;;6.78;4.85;;;18.00;99.90;;;;;;5095377;28;20041;-66
2022/07/31 04:48:22;;;;;;;8.45;5.25;;;18.00;99.90;;;;;;5083735;28;20048;-66
2022/07/31 04:50:48;;;;;;;5.45;4.75;;;18.10;99.90;;;;;;5094733;28;20183;-66
2022/07/31 04:53:13;;;;;;;6.32;4.68;;;18.20;99.90;;;;;;5098201;28;20044;-66
2022/07/31 04:55:40;;;;;;;10.25;4.93;;;18.20;99.90;;;;;;5104136;28;20040;-66
2022/07/31 04:58:06;;;;;;;16.42;4.93;;;18.30;99.90;;;;;;5103432;28;20051;-66
2022/07/31 05:00:31;;;;;;;7.47;4.47;;;18.30;99.90;;;;;;5102683;28;20043;-66
2022/07/31 05:02:57;;;;;;;5.47;4.40;;;18.40;99.90;;;;;;5103017;28;20040;-66
2022/07/31 05:05:23;;;;;;;7.03;4.47;;;18.40;99.90;;;;;;5100372;28;20044;-66
2022/07/31 05:07:49;;;;;;;6.85;4.88;;;18.50;99.90;;;;;;5096017;28;20056;-66
2022/07/31 05:12:59;;;;;;;4.90;4.43;;;18.60;99.90;;;;;;5098044;28;20059;-66
2022/07/31 05:15:25;;;;;;;4.65;4.25;;;18.60;99.90;;;;;;5087924;28;20044;-66
2022/07/31 05:17:50;;;;;;;7.05;4.18;;;18.60;99.90;;;;;;5068231;28;20044;-66
2022/07/31 05:20:16;;;;;;;9.88;4.82;;;18.70;99.90;;;;;;5105613;28;20044;-66
2022/07/31 05:22:42;;;;;;;5.97;4.38;;;18.70;99.90;;;;;;5068488;28;20053;-66
2022/07/31 05:25:08;;;;;;;5.68;4.45;;;18.80;99.90;;;;;;5084716;28;20044;-66
2022/07/31 05:27:34;;;;;;;6.10;4.15;;;18.80;99.90;;;;;;5064214;28;20048;-66
2022/07/31 05:29:59;;;;;;;5.45;4.15;;;18.90;99.90;;;;;;5047791;28;20033;-66
2022/07/31 05:32:25;;;;;;;5.55;3.78;;;19.00;99.90;;;;;;5076120;28;20048;-66
2022/07/31 05:34:51;;;;;;;6.15;4.13;;;19.00;99.90;;;;;;5086054;28;20050;-66
2022/07/31 05:37:16;;;;;;;9.98;3.97;;;19.10;99.90;;;;;;5083470;28;20102;-66
2022/07/31 05:39:42;;;;;;;4.70;4.00;;;19.10;99.90;;;;;;5084118;28;20109;-66
2022/07/31 05:42:07;;;;;;;5.97;3.72;;;19.20;99.90;;;;;;5070923;28;20040;-66
2022/07/31 05:44:33;;;;;;;5.32;3.47;;;19.20;99.90;;;;;;5073062;28;20064;-66
2022/07/31 05:46:59;;;;;;;4.85;3.90;;;19.20;99.90;;;;;;5067866;28;20051;-66
2022/07/31 05:49:27;;;;;;;6.45;3.80;;;19.30;99.90;;;;;;5070043;28;20044;-66
2022/07/31 05:51:53;;;;;;;6.35;3.97;;;19.30;99.90;;;;;;5083156;28;20433;-66
2022/07/31 05:54:20;;;;;;;6.85;3.97;;;19.30;99.90;;;;;;5063406;28;20053;-66
2022/07/31 05:56:46;;;;;;;7.95;4.07;;;19.40;99.90;;;;;;5075753;28;20036;-66
2022/07/31 05:59:12;;;;;;;5.68;4.43;;;19.40;99.90;;;;;;5079346;28;20048;-66
2022/07/31 06:01:38;;;;;;;5.00;3.58;;;19.40;99.90;;;;;;5084524;28;20041;-65
2022/07/31 06:04:03;;;;;;;5.85;4.18;;;19.40;99.90;;;;;;5081763;28;20050;-65
2022/07/31 06:06:29;;;;;;;6.00;3.60;;;19.50;99.90;;;;;;5084911;28;20041;-65
2022/07/31 06:08:55;;;;;;;6.93;4.20;;;19.50;99.90;;;;;;5064041;28;20052;-66
2022/07/31 06:11:21;;;;;;;4.85;3.95;;;19.50;99.90;;;;;;5076153;28;20049;-66
2022/07/31 06:13:46;;;;;;;5.95;3.90;;;19.60;99.90;;;;;;5081077;28;20056;-65
2022/07/31 06:16:13;;;;;;;6.00;4.10;;;19.60;99.90;;;;;;5065847;28;20052;-65
2022/07/31 06:18:40;;;;;;;6.75;3.97;;;19.60;99.90;;;;;;5078610;28;20040;-66
2022/07/31 06:21:06;;;;;;;8.40;4.00;;;19.70;99.90;;;;;;5068036;28;20105;-66
2022/07/31 06:23:31;;;;;;;5.63;4.25;;;19.70;99.90;;;;;;5083536;28;20056;-66
2022/07/31 06:25:57;;;;;;;8.68;4.32;;;19.70;99.90;;;;;;5086252;28;20044;-66
2022/07/31 06:28:23;;;;;;;6.13;3.63;;;19.70;99.90;;;;;;5100217;28;20048;-66
2022/07/31 06:30:48;;;;;;;4.70;3.60;;;19.80;99.90;;;;;;5101968;28;20502;-66
2022/07/31 06:33:14;;;;;;;5.75;4.10;;;19.80;99.90;;;;;;5085254;28;20112;-66
2022/07/31 06:35:40;;;;;;;5.95;3.78;;;19.90;99.90;;;;;;5106079;28;20044;-66
2022/07/31 06:38:05;;;;;;;7.82;4.35;;;19.80;99.90;;;;;;5084074;28;20070;-66
2022/07/31 06:40:31;;;;;;;4.15;3.67;;;19.80;99.90;;;;;;5104809;28;20048;-66
2022/07/31 06:42:57;;;;;;;6.25;3.85;;;19.80;99.90;;;;;;5079583;28;20103;-66
2022/07/31 06:45:23;;;;;;;9.85;4.60;;;19.80;99.90;;;;;;5086320;28;20044;-65
2022/07/31 06:47:49;;;;;;;8.02;3.72;;;19.90;99.90;;;;;;5080787;28;20052;-66
2022/07/31 06:50:14;;;;;;;4.38;3.95;;;19.90;99.90;;;;;;5085664;28;20397;-65
2022/07/31 06:52:40;;;;;;;9.35;4.78;;;19.90;99.90;;;;;;5059382;28;20073;-66
2022/07/31 06:55:07;;;;;;;7.43;4.00;;;19.90;99.90;;;;;;5083655;28;20271;-66
2022/07/31 06:57:33;;;;;;;6.88;4.47;;;19.90;99.90;;;;;;5098683;28;20036;-66
2022/07/31 06:59:59;;;;;;;6.30;4.03;;;20.00;99.90;;;;;;5084704;28;20046;-66
2022/07/31 07:02:24;;;;;;;7.65;4.55;;;20.00;99.90;;;;;;5086337;28;20047;-65
2022/07/31 07:04:50;;;;;;;6.50;4.28;;;20.00;99.90;;;;;;5101470;28;20051;-66
2022/07/31 07:07:16;;;;;;;6.25;4.70;;;20.00;99.90;;;;;;5080851;28;20094;-66
2022/07/31 07:09:41;;;;;;;7.03;4.88;;;20.00;99.90;;;;;;5050855;28;20512;-65
2022/07/31 07:12:07;;;;;;;6.07;4.40;;;20.10;99.90;;;;;;5092101;28;20039;-66
2022/07/31 07:14:33;;;;;;;7.25;5.50;;;20.10;99.90;;;;;;5083305;28;20048;-66
2022/07/31 07:17:03;;;;;;;6.22;4.57;;;20.10;99.90;;;;;;5104775;28;20032;-66
2022/07/31 07:19:29;;;;;;;5.50;4.70;;;20.10;99.90;;;;;;5096585;28;20045;-66
2022/07/31 07:21:55;;;;;;;6.70;4.13;;;20.10;99.90;;;;;;5079559;28;20121;-66
2022/07/31 07:24:21;;;;;;;7.78;4.07;;;20.10;99.90;;;;;;5085383;28;20052;-66
2022/07/31 07:26:46;;;;;;;7.97;4.65;;;20.20;99.90;;;;;;5082665;28;20036;-65
2022/07/31 07:29:12;;;;;;;7.53;5.57;;;20.20;99.90;;;;;;5105118;28;20514;-66
2022/07/31 07:31:38;;;;;;;6.53;4.88;;;20.20;99.90;;;;;;5083002;28;20266;-66
2022/07/31 07:34:05;;;;;;;9.77;4.82;;;20.20;99.90;;;;;;5102529;28;20124;-65
2022/07/31 07:36:31;;;;;;;6.88;5.13;;;20.20;99.90;;;;;;5066345;28;20048;-67
2022/07/31 07:38:57;;;;;;;7.35;4.82;;;20.20;99.90;;;;;;5074274;28;20143;-66
2022/07/31 07:41:23;;;;;;;8.40;5.20;;;20.20;99.90;;;;;;5064108;28;20473;-66
2022/07/31 07:43:49;;;;;;;5.68;4.50;;;20.20;99.90;;;;;;5074896;28;20045;-66
2022/07/31 07:46:15;;;;;;;8.25;5.45;;;20.20;99.90;;;;;;5085061;28;20040;-66
2022/07/31 07:48:41;;;;;;;11.23;5.85;;;20.30;99.90;;;;;;5082564;28;20047;-66
2022/07/31 07:51:06;;;;;;;7.75;5.50;;;20.30;99.90;;;;;;5081946;28;20041;-66
2022/07/31 07:53:32;;;;;;;6.85;5.50;;;20.40;99.90;;;;;;5079957;28;20045;-65
2022/07/31 07:55:59;;;;;;;10.43;5.60;;;20.50;99.90;;;;;;5082461;28;20052;-66
2022/07/31 07:58:25;;;;;;;7.63;5.70;;;20.50;99.90;;;;;;5081312;28;20044;-67
2022/07/31 08:00:50;;;;;;;9.02;5.75;;;20.50;99.90;;;;;;5079695;28;20104;-67
2022/07/31 08:03:16;;;;;;;6.15;5.18;;;20.50;99.90;;;;;;5080080;28;20051;-67
2022/07/31 08:05:42;;;;;;;9.48;6.28;;;20.50;99.90;;;;;;5102718;28;20040;-66
2022/07/31 08:08:07;;;;;;;9.10;6.88;;;20.50;99.90;;;;;;5082159;28;20049;-66
2022/07/31 08:10:33;;;;;;;9.00;7.43;;;20.60;99.90;;;;;;5097607;28;20032;-66
2022/07/31 08:12:59;;;;;;;7.70;6.55;;;20.60;99.90;;;;;;5075248;28;20053;-66
2022/07/31 08:15:24;;;;;;;7.97;6.63;;;20.60;99.90;;;;;;5082424;28;20046;-65
2022/07/31 08:17:51;;;;;;;10.77;6.38;;;20.70;99.90;;;;;;5080917;28;20076;-65
2022/07/31 08:20:16;;;;;;;10.15;6.30;;;20.80;99.90;;;;;;5086432;28;20036;-66
2022/07/31 08:22:42;;;;;;;8.35;7.00;;;20.90;99.90;;;;;;5104530;28;20460;-66
2022/07/31 08:25:08;;;;;;;8.80;6.47;;;20.90;99.90;;;;;;5086174;28;20052;-66
2022/07/31 08:27:33;;;;;;;8.25;7.45;;;20.90;99.90;;;;;;5086637;28;20094;-65
2022/07/31 08:30:00;;;;;;;12.40;9.40;;;21.00;99.90;;;;;;5104397;28;20074;-65
2022/07/31 08:32:26;;;;;;;11.10;7.93;;;21.00;99.90;;;;;;5101703;28;20396;-65
2022/07/31 08:34:53;;;;;;;11.55;7.93;;;21.00;99.90;;;;;;5088004;28;20048;-65
2022/07/31 08:37:19;;;;;;;16.40;8.00;;;21.00;99.90;;;;;;5100612;28;20105;-65
2022/07/31 08:39:46;;;;;;;9.65;7.70;;;21.10;99.90;;;;;;5102641;28;20044;-66
2022/07/31 08:42:12;;;;;;;11.07;8.50;;;21.10;99.90;;;;;;5083007;28;20139;-65
2022/07/31 08:44:39;;;;;;;10.52;7.80;;;21.10;99.90;;;;;;5077050;28;20040;-65
2022/07/31 08:47:06;;;;;;;12.60;8.57;;;21.00;99.90;;;;;;5084510;28;20141;-65
2022/07/31 08:49:36;;;;;;;10.52;9.38;;;21.10;99.90;;;;;;5091861;28;20057;-65
2022/07/31 08:52:03;;;;;;;12.45;9.45;;;21.00;99.90;;;;;;5087208;28;20040;-65
2022/07/31 08:54:31;;;;;;;10.85;8.52;;;21.00;99.90;;;;;;5075197;28;20128;-66
2022/07/31 08:56:57;;;;;;;10.68;7.95;;;21.00;99.90;;;;;;5081775;28;20041;-65
2022/07/31 08:59:23;;;;;;;10.48;8.77;;;21.00;99.90;;;;;;5090996;28;20447;-65
2022/07/31 09:01:50;;;;;;;13.05;8.70;;;21.10;99.90;;;;;;5106765;28;20044;-65
2022/07/31 09:04:15;;;;;;;12.43;8.20;;;21.10;99.90;;;;;;5087914;28;20048;-65
2022/07/31 09:06:41;;;;;;;10.45;8.68;;;21.10;99.90;;;;;;5102848;28;20080;-65
2022/07/31 09:09:07;;;;;;;10.45;9.38;;;21.00;99.90;;;;;;5058750;28;20055;-65
2022/07/31 09:11:33;;;;;;;12.80;9.43;;;21.00;99.90;;;;;;5092207;28;20039;-65
2022/07/31 09:14:03;;;;;;;13.10;9.93;;;20.90;99.90;;;;;;5075902;28;20040;-65
2022/07/31 09:16:30;;;;;;;10.65;9.10;;;20.80;99.90;;;;;;5091947;28;20048;-64
2022/07/31 09:18:56;;;;;;;12.05;8.55;;;20.80;99.90;;;;;;5079773;28;20090;-63
2022/07/31 09:21:22;;;;;;;12.65;10.75;;;20.80;99.90;;;;;;5072184;28;20059;-63
2022/07/31 09:23:48;;;;;;;13.23;10.82;;;20.70;99.90;;;;;;5097179;28;20052;-63
2022/07/31 09:26:14;;;;;;;12.10;9.88;;;20.70;99.90;;;;;;5084606;28;20044;-63
2022/07/31 09:28:45;;;;;;;21.55;14.95;;;20.70;99.90;;;;;;5103064;28;20054;-63
2022/07/31 09:31:12;;;;;;;16.33;12.52;;;20.60;99.90;;;;;;5104355;28;20051;-63
2022/07/31 09:33:42;;;;;;;14.88;11.43;;;20.50;99.90;;;;;;5087734;28;20040;-63
2022/07/31 09:36:08;;;;;;;14.30;10.93;;;20.30;99.90;;;;;;5105705;28;20040;-63
2022/07/31 09:38:37;;;;;;;14.18;12.07;;;20.20;99.90;;;;;;5104501;28;20043;-63
2022/07/31 09:41:14;;;;;;;15.88;11.55;;;20.20;99.90;;;;;;5098535;28;20058;-63
2022/07/31 09:43:40;;;;;;;18.00;12.52;;;20.20;99.90;;;;;;5106126;28;20110;-63
2022/07/31 09:46:09;;;;;;;18.52;13.57;;;20.30;99.90;;;;;;5099555;28;20075;-64
2022/07/31 09:48:36;;;;;;;17.70;13.27;;;20.20;99.90;;;;;;5097291;28;20407;-63
2022/07/31 09:51:07;;;;;;;15.43;12.85;;;20.20;99.90;;;;;;5090998;28;20048;-63
2022/07/31 09:53:52;;;;;;;17.55;13.13;;;20.20;99.90;;;;;;5097441;28;20067;-64
2022/07/31 09:56:29;;;;;;;16.30;11.50;;;20.30;99.90;;;;;;5079269;28;20047;-64
2022/07/31 09:58:55;;;;;;;15.63;12.10;;;20.30;99.90;;;;;;5103192;28;20411;-64
2022/07/31 10:01:21;;;;;;;14.77;11.40;;;20.30;99.90;;;;;;5096245;28;20040;-64
2022/07/31 10:03:49;;;;;;;17.15;11.98;;;20.50;99.90;;;;;;5082890;28;20056;-64
2022/07/31 10:06:16;;;;;;;13.95;12.48;;;20.50;99.90;;;;;;5087226;28;20048;-64
2022/07/31 10:08:43;;;;;;;12.30;10.25;;;20.60;99.90;;;;;;5096756;28;20123;-64
2022/07/31 10:11:09;;;;;;;15.88;12.02;;;20.70;99.90;;;;;;5078514;28;20590;-64
2022/07/31 10:13:40;;;;;;;14.60;12.88;;;20.80;99.90;;;;;;5082498;28;20396;-64
2022/07/31 10:16:06;;;;;;;14.60;12.93;;;20.80;99.90;;;;;;5062687;28;20052;-64
2022/07/31 10:18:36;;;;;;;14.70;11.98;;;20.90;99.90;;;;;;5064264;28;20077;-64
2022/07/31 10:21:05;;;;;;;16.13;12.63;;;20.80;99.90;;;;;;5067131;28;20048;-65
2022/07/31 10:23:35;;;;;;;17.00;12.57;;;20.70;99.90;;;;;;5088025;28;20060;-64
2022/07/31 10:26:01;;;;;;;;;;;20.60;99.90;;;;;;5081572;28;20040;-64
2022/07/31 10:28:28;;;;;;;19.05;12.73;;;20.60;99.90;;;;;;5084417;28;19920;-65
2022/07/31 10:30:55;;;;;;;18.20;13.60;;;20.50;99.90;;;;;;5102848;28;20048;-65
2022/07/31 10:33:21;;;;;;;14.65;13.02;;;20.60;99.90;;;;;;5069321;28;20048;-63
2022/07/31 10:36:11;;;;;;;14.48;12.98;;;20.70;99.90;;;;;;5044725;28;20065;-64
2022/07/31 10:39:00;;;;;;;15.88;12.75;;;20.70;99.90;;;;;;5036549;28;20063;-64
2022/07/31 10:41:33;;;;;;;14.50;12.68;;;20.70;99.90;;;;;;5046921;28;20075;-64
2022/07/31 10:44:06;;;;;;;16.48;13.73;;;20.80;99.90;;;;;;5049726;28;20134;-65
2022/07/31 10:46:33;;;;;;;15.38;13.00;;;20.80;99.90;;;;;;5079956;28;20048;-65
2022/07/31 10:48:59;;;;;;;13.23;11.82;;;20.80;99.90;;;;;;5064760;28;20107;-64
2022/07/31 10:51:25;;;;;;;14.75;13.20;;;20.90;99.90;;;;;;5066427;28;20036;-64
2022/07/31 10:54:02;;;;;;;15.88;13.25;;;20.90;99.90;;;;;;5063011;28;20052;-64
2022/07/31 10:56:39;;;;;;;15.50;13.25;;;20.90;99.90;;;;;;5085198;28;20091;-64
2022/07/31 10:59:05;;;;;;;14.52;12.68;;;21.00;99.90;;;;;;5063847;28;20056;-65
2022/07/31 11:01:31;;;;;;;17.58;12.18;;;21.00;99.90;;;;;;5064077;28;20361;-64
2022/07/31 11:04:01;;;;;;;15.07;12.63;;;21.10;99.90;;;;;;5058248;28;20048;-64
2022/07/31 11:06:38;;;;;;;14.52;12.77;;;21.10;99.90;;;;;;5086922;28;20446;-65
2022/07/31 11:09:04;;;;;;;20.02;14.07;;;21.10;99.90;;;;;;5053345;28;20102;-64
2022/07/31 11:11:35;;;;;;;13.95;12.20;;;21.10;99.90;;;;;;5063846;28;20048;-64
2022/07/31 11:14:02;;;;;;;16.25;13.68;;;21.10;99.90;;;;;;5066946;28;20106;-65
2022/07/31 11:16:28;;;;;;;15.73;14.05;;;21.00;99.90;;;;;;5062323;28;20430;-65
2022/07/31 11:18:57;;;;;;;13.80;12.38;;;21.10;99.90;;;;;;5059787;28;20086;-64
2022/07/31 11:21:31;;;;;;;15.60;13.65;;;21.10;99.90;;;;;;5051966;28;20069;-65
2022/07/31 11:23:57;;;;;;;17.90;16.08;;;21.10;99.90;;;;;;5051788;28;20094;-64
2022/07/31 11:26:24;;;;;;;16.38;14.25;;;21.00;99.90;;;;;;5062544;28;20118;-65
2022/07/31 11:28:50;;;;;;;16.70;14.48;;;21.00;99.90;;;;;;5069972;28;20080;-64
2022/07/31 11:31:15;;;;;;;16.67;14.90;;;21.00;99.90;;;;;;5063134;28;20040;-64
2022/07/31 11:33:44;;;;;;;15.95;14.05;;;21.00;99.90;;;;;;5068418;28;20048;-64
2022/07/31 11:36:13;;;;;;;15.82;14.13;;;21.00;99.90;;;;;;5062732;28;20047;-64
2022/07/31 11:38:41;;;;;;;16.83;14.63;;;21.00;99.90;;;;;;5051219;28;20048;-65
2022/07/31 11:41:08;;;;;;;16.10;14.07;;;20.90;99.90;;;;;;5063769;28;20052;-65
2022/07/31 11:43:36;;;;;;;18.05;14.48;;;20.80;99.90;;;;;;5081708;28;20040;-65
2022/07/31 11:46:03;;;;;;;17.35;15.50;;;20.70;99.90;;;;;;5060841;28;20043;-65
2022/07/31 11:48:31;;;;;;;17.95;14.80;;;20.80;99.90;;;;;;5066731;28;20281;-65
2022/07/31 11:50:58;;;;;;;20.90;17.17;;;20.80;99.90;;;;;;5035018;28;20099;-65
2022/07/31 11:53:24;;;;;;;17.60;15.30;;;20.70;99.90;;;;;;5074955;28;20088;-65
2022/07/31 11:55:56;;;;;;;17.38;15.00;;;20.70;99.90;;;;;;5054586;28;20067;-65
2022/07/31 11:58:25;;;;;;;22.52;17.80;;;20.60;99.90;;;;;;5076524;28;20504;-65
2022/07/31 12:00:57;;;;;;;30.13;25.65;;;20.70;99.90;;;;;;5060265;28;20056;-65
2022/07/31 12:03:44;;;;;;;25.08;21.38;;;20.60;99.90;;;;;;5077915;28;20043;-65
2022/07/31 12:06:11;;;;;;;27.73;20.83;;;20.60;99.90;;;;;;5076935;28;20589;-64
2022/07/31 12:08:38;;;;;;;28.17;23.48;;;20.50;99.90;;;;;;5086285;28;20101;-66
2022/07/31 12:11:08;;;;;;;25.35;19.42;;;20.40;99.90;;;;;;5062264;28;20053;-64
2022/07/31 12:13:34;;;;;;;24.52;20.27;;;20.30;99.90;;;;;;5063246;28;20076;-65
2022/07/31 12:16:06;;;;;;;26.52;21.42;;;20.20;99.90;;;;;;5082803;28;20112;-64
2022/07/31 12:18:44;;;;;;;26.42;22.55;;;20.00;99.90;;;;;;5074920;28;20048;-65
2022/07/31 12:21:09;;;;;;;24.98;19.95;;;20.00;99.90;;;;;;5056913;28;20048;-65
2022/07/31 12:23:45;;;;;;;26.00;19.27;;;20.00;99.90;;;;;;5078266;28;20059;-65
2022/07/31 12:26:20;;;;;;;26.90;20.70;;;19.80;99.90;;;;;;5043824;28;20045;-65
2022/07/31 12:29:03;;;;;;;24.17;20.92;;;19.70;99.90;;;;;;5086341;28;20059;-65
2022/07/31 12:31:31;;;;;;;26.67;22.08;;;19.70;99.90;;;;;;5071166;28;20047;-65
2022/07/31 12:33:57;;;;;;;25.70;22.85;;;19.60;99.90;;;;;;5064315;28;20048;-65
2022/07/31 12:36:23;;;;;;;28.98;23.40;;;19.60;99.90;;;;;;5067970;28;20067;-65
2022/07/31 12:38:59;;;;;;;26.25;22.50;;;19.70;99.90;;;;;;5088130;28;20086;-65
2022/07/31 12:41:27;;;;;;;26.95;23.48;;;19.60;99.90;;;;;;5080459;28;20052;-64
2022/07/31 12:43:53;;;;;;;28.40;23.95;;;19.70;99.90;;;;;;5077670;28;20071;-65